Wetterdaten: Woche 26.06.23 - 02.07.23 (KW26)
Datum Zeit Temp. Aussen Temp. o. S. Temp +5cm Feuchte Auss Luftdruck Regen Sonnenschein Regendauer Solar Windben Empfang
26.06.2023 00:00 23,5 C 23,0 C 19,1 C 72 % 1013,6 hPa 0,0 l/m 0,00 h 0,00 h 0 W/m 2,4 km/h (1 Bft) 93,68 %
26.06.2023 01:00 23,5 C 22,2 C 18,9 C 72 % 1013,3 hPa 0,0 l/m 0,00 h 0,00 h 0 W/m 3,0 km/h (1 Bft) 97,58 %
26.06.2023 02:00 22,7 C 21,1 C 17,8 C 75 % 1013,1 hPa 0,0 l/m 0,00 h 0,00 h 0 W/m 1,5 km/h (1 Bft) 97,44 %
26.06.2023 03:00 21,5 C 20,1 C 17,2 C 79 % 1012,9 hPa 0,0 l/m 0,00 h 0,00 h 0 W/m 2,8 km/h (1 Bft) 97,93 %
26.06.2023 04:00 21,0 C 20,0 C 17,1 C 80 % 1013,1 hPa 0,0 l/m 0,00 h 0,00 h 0 W/m 4,3 km/h (1 Bft) 96,44 %
26.06.2023 05:00 21,1 C 20,0 C 17,2 C 79 % 1013,7 hPa 0,0 l/m 0,00 h 0,00 h 12 W/m 5,2 km/h (1 Bft) 99,15 %
26.06.2023 06:00 21,1 C 20,5 C 17,2 C 77 % 1014,1 hPa 0,0 l/m 0,00 h 0,00 h 36 W/m 9,9 km/h (2 Bft) 96,80 %
26.06.2023 07:00 21,0 C 20,4 C 17,2 C 77 % 1014,7 hPa 0,0 l/m 0,00 h 0,00 h 73 W/m 10,7 km/h (2 Bft) 97,22 %
26.06.2023 08:00 21,3 C 22,0 C 18,0 C 78 % 1015,3 hPa 0,0 l/m 0,47 h 0,00 h 225 W/m 14,2 km/h (3 Bft) 98,51 %
26.06.2023 09:00 22,0 C 23,5 C 19,5 C 77 % 1015,8 hPa 0,0 l/m 0,60 h 0,00 h 370 W/m 14,5 km/h (3 Bft) 97,65 %
26.06.2023 10:00 21,9 C 22,2 C 19,2 C 76 % 1016,4 hPa 0,0 l/m 0,20 h 0,00 h 337 W/m 14,9 km/h (3 Bft) 96,31 %
26.06.2023 11:00 23,2 C 24,5 C 21,3 C 72 % 1016,7 hPa 0,0 l/m 0,73 h 0,00 h 651 W/m 15,5 km/h (3 Bft) 99,50 %
26.06.2023 12:00 24,3 C 26,5 C 25,8 C 65 % 1017,0 hPa 0,0 l/m 0,82 h 0,00 h 756 W/m 18,0 km/h (3 Bft) 96,40 %
26.06.2023 13:00 24,5 C 26,0 C 24,0 C 58 % 1017,5 hPa 0,0 l/m 0,60 h 0,00 h 626 W/m 17,6 km/h (3 Bft) 97,56 %
26.06.2023 14:00 24,4 C 26,8 C 21,5 C 54 % 1018,0 hPa 0,0 l/m 0,83 h 0,00 h 729 W/m 20,7 km/h (4 Bft) 97,62 %
26.06.2023 15:00 24,3 C 26,3 C 20,6 C 53 % 1018,3 hPa 0,0 l/m 0,77 h 0,00 h 642 W/m 23,0 km/h (4 Bft) 98,22 %
26.06.2023 16:00 24,1 C 25,4 C 20,5 C 53 % 1018,6 hPa 0,0 l/m 0,67 h 0,00 h 523 W/m 19,8 km/h (3 Bft) 97,02 %
26.06.2023 17:00 23,6 C 24,7 C 20,1 C 54 % 1018,8 hPa 0,0 l/m 0,80 h 0,00 h 389 W/m 19,4 km/h (3 Bft) 97,14 %
26.06.2023 18:00 22,8 C 22,9 C 18,9 C 55 % 1018,9 hPa 0,0 l/m 0,43 h 0,00 h 226 W/m 21,1 km/h (4 Bft) 98,01 %
26.06.2023 19:00 21,7 C 21,1 C 17,8 C 58 % 1019,2 hPa 0,0 l/m 0,17 h 0,00 h 135 W/m 14,5 km/h (3 Bft) 98,03 %
26.06.2023 20:00 21,4 C 21,0 C 17,4 C 59 % 1019,5 hPa 0,0 l/m 0,23 h 0,00 h 78 W/m 9,8 km/h (2 Bft) 96,17 %
26.06.2023 21:00 20,9 C 19,9 C 16,3 C 62 % 1019,9 hPa 0,0 l/m 0,10 h 0,00 h 22 W/m 6,4 km/h (2 Bft) 99,22 %
26.06.2023 22:00 19,6 C 18,1 C 14,7 C 67 % 1020,3 hPa 0,0 l/m 0,00 h 0,00 h 3 W/m 2,9 km/h (1 Bft) 97,22 %
26.06.2023 23:00 18,2 C 16,7 C 13,4 C 72 % 1020,6 hPa 0,0 l/m 0,00 h 0,00 h 0 W/m 0,2 km/h (0 Bft) 95,59 %
27.06.2023 00:00 17,0 C 15,6 C 12,4 C 77 % 1020,7 hPa 0,0 l/m 0,00 h 0,00 h 0 W/m 0,1 km/h (0 Bft) 98,25 %
27.06.2023 01:00 16,2 C 15,0 C 12,2 C 79 % 1020,8 hPa 0,0 l/m 0,00 h 0,00 h 0 W/m 0,1 km/h (0 Bft) 96,45 %
27.06.2023 02:00 16,0 C 15,0 C 12,0 C 80 % 1020,9 hPa 0,0 l/m 0,00 h 0,00 h 0 W/m 0,0 km/h (0 Bft) 95,86 %
27.06.2023 03:00 15,6 C 14,4 C 11,7 C 81 % 1020,7 hPa 0,0 l/m 0,00 h 0,00 h 0 W/m 0,0 km/h (0 Bft) 96,51 %
27.06.2023 04:00 15,4 C 14,6 C 11,8 C 82 % 1020,6 hPa 0,0 l/m 0,00 h 0,00 h 0 W/m 0,0 km/h (0 Bft) 98,30 %
27.06.2023 05:00 15,6 C 15,0 C 11,9 C 82 % 1020,6 hPa 0,0 l/m 0,00 h 0,00 h 8 W/m 1,8 km/h (1 Bft) 98,23 %
27.06.2023 06:00 15,7 C 15,3 C 12,2 C 83 % 1020,6 hPa 0,0 l/m 0,00 h 0,00 h 35 W/m 6,5 km/h (2 Bft) 93,66 %
27.06.2023 07:00 15,9 C 15,3 C 12,3 C 84 % 1020,6 hPa 0,0 l/m 0,23 h 0,00 h 96 W/m 7,9 km/h (2 Bft) 99,50 %
27.06.2023 08:00 17,5 C 20,6 C 15,1 C 82 % 1020,6 hPa 0,0 l/m 1,00 h 0,00 h 379 W/m 9,9 km/h (2 Bft) 97,09 %
27.06.2023 09:00 19,9 C 24,1 C 19,1 C 77 % 1020,7 hPa 0,0 l/m 1,00 h 0,00 h 544 W/m 10,3 km/h (2 Bft) 97,44 %
27.06.2023 10:00 20,9 C 22,4 C 19,9 C 73 % 1020,6 hPa 0,0 l/m 0,67 h 0,00 h 455 W/m 11,0 km/h (2 Bft) 96,63 %
27.06.2023 11:00 21,7 C 22,6 C 19,4 C 68 % 1020,4 hPa 0,0 l/m 0,57 h 0,00 h 464 W/m 12,6 km/h (3 Bft) 97,86 %
27.06.2023 12:00 21,7 C 21,8 C 18,6 C 66 % 1020,5 hPa 0,0 l/m 0,20 h 0,00 h 274 W/m 8,8 km/h (2 Bft) 98,12 %
27.06.2023 13:00 21,8 C 23,2 C 19,7 C 64 % 1020,3 hPa 0,0 l/m 0,67 h 0,00 h 485 W/m 12,9 km/h (3 Bft) 97,01 %
27.06.2023 14:00 23,0 C 24,5 C 19,8 C 58 % 1020,0 hPa 0,0 l/m 0,43 h 0,00 h 497 W/m 15,2 km/h (3 Bft) 96,31 %
27.06.2023 15:00 23,3 C 24,7 C 19,6 C 56 % 1019,6 hPa 0,0 l/m 0,43 h 0,00 h 457 W/m 14,1 km/h (3 Bft) 99,36 %
27.06.2023 16:00 23,2 C 23,6 C 19,5 C 55 % 1019,3 hPa 0,0 l/m 0,33 h 0,00 h 347 W/m 15,9 km/h (3 Bft) 96,00 %
27.06.2023 17:00 22,9 C 23,4 C 19,0 C 57 % 1019,0 hPa 0,0 l/m 0,63 h 0,00 h 334 W/m 18,6 km/h (3 Bft) 97,26 %
27.06.2023 18:00 22,9 C 23,0 C 19,0 C 56 % 1018,7 hPa 0,0 l/m 0,37 h 0,00 h 229 W/m 13,6 km/h (3 Bft) 96,91 %
27.06.2023 19:00 22,3 C 21,8 C 17,9 C 57 % 1018,7 hPa 0,0 l/m 0,00 h 0,00 h 92 W/m 16,5 km/h (3 Bft) 98,79 %
27.06.2023 20:00 21,5 C 20,8 C 17,0 C 59 % 1019,1 hPa 0,0 l/m 0,00 h 0,00 h 43 W/m 12,4 km/h (3 Bft) 96,58 %
27.06.2023 21:00 20,7 C 19,7 C 16,1 C 61 % 1019,3 hPa 0,0 l/m 0,00 h 0,00 h 14 W/m 7,8 km/h (2 Bft) 97,95 %
27.06.2023 22:00 19,9 C 18,7 C 15,3 C 64 % 1019,5 hPa 0,0 l/m 0,00 h 0,00 h 0 W/m 2,8 km/h (1 Bft) 97,78 %
27.06.2023 23:00 19,1 C 17,9 C 14,3 C 71 % 1019,5 hPa 0,0 l/m 0,00 h 0,37 h 0 W/m 2,6 km/h (1 Bft) 96,32 %
28.06.2023 00:00 18,0 C 16,8 C 13,2 C 80 % 1019,4 hPa 0,0 l/m 0,00 h 0,30 h 0 W/m 2,4 km/h (1 Bft) 93,27 %
28.06.2023 01:00 17,2 C 15,9 C 12,8 C 82 % 1019,4 hPa 0,0 l/m 0,00 h 0,07 h 0 W/m 0,1 km/h (0 Bft) 97,88 %
28.06.2023 02:00 16,5 C 15,2 C 12,4 C 84 % 1019,5 hPa 0,0 l/m 0,00 h 0,00 h 0 W/m 0,8 km/h (0 Bft) 98,40 %
28.06.2023 03:00 16,1 C 15,0 C 11,9 C 85 % 1019,6 hPa 0,0 l/m 0,00 h 0,00 h 0 W/m 0,2 km/h (0 Bft) 97,44 %
28.06.2023 04:00 15,9 C 15,0 C 11,9 C 86 % 1019,6 hPa 0,0 l/m 0,00 h 0,00 h 0 W/m 0,0 km/h (0 Bft) 96,51 %
28.06.2023 05:00 16,1 C 15,2 C 12,1 C 87 % 1019,5 hPa 0,0 l/m 0,00 h 0,13 h 7 W/m 0,3 km/h (0 Bft) 98,41 %
28.06.2023 06:00 16,2 C 15,5 C 11,7 C 90 % 1019,4 hPa 0,2 l/m 0,00 h 0,13 h 18 W/m 0,0 km/h (0 Bft) 98,12 %
28.06.2023 07:00 16,1 C 15,6 C 11,9 C 90 % 1019,4 hPa 0,0 l/m 0,00 h 0,23 h 40 W/m 1,6 km/h (1 Bft) 94,73 %
28.06.2023 08:00 16,3 C 16,1 C 12,6 C 90 % 1019,3 hPa 0,0 l/m 0,00 h 0,10 h 77 W/m 2,0 km/h (1 Bft) 98,86 %
28.06.2023 09:00 16,8 C 16,9 C 13,5 C 87 % 1019,4 hPa 0,0 l/m 0,00 h 0,00 h 123 W/m 4,0 km/h (1 Bft) 97,95 %
28.06.2023 10:00 17,8 C 17,9 C 14,3 C 82 % 1019,4 hPa 0,0 l/m 0,00 h 0,00 h 161 W/m 5,3 km/h (1 Bft) 95,94 %
28.06.2023 11:00 18,3 C 18,2 C 14,7 C 79 % 1019,4 hPa 0,2 l/m 0,00 h 0,00 h 169 W/m 8,7 km/h (2 Bft) 98,99 %
28.06.2023 12:00 19,2 C 19,6 C 15,9 C 76 % 1019,3 hPa 0,0 l/m 0,00 h 0,00 h 274 W/m 8,3 km/h (2 Bft) 97,42 %
28.06.2023 13:00 20,6 C 21,4 C 17,4 C 73 % 1019,1 hPa 0,0 l/m 0,13 h 0,00 h 395 W/m 9,4 km/h (2 Bft) 96,57 %
28.06.2023 14:00 22,0 C 22,9 C 18,8 C 69 % 1018,7 hPa 0,0 l/m 0,27 h 0,00 h 383 W/m 9,3 km/h (2 Bft) 99,01 %
28.06.2023 15:00 22,3 C 22,8 C 18,7 C 69 % 1018,7 hPa 0,0 l/m 0,13 h 0,00 h 329 W/m 9,2 km/h (2 Bft) 97,44 %
28.06.2023 16:00 23,1 C 23,7 C 19,3 C 67 % 1018,3 hPa 0,0 l/m 0,00 h 0,00 h 335 W/m 6,7 km/h (2 Bft) 97,67 %
28.06.2023 17:00 23,6 C 24,2 C 19,8 C 66 % 1017,9 hPa 0,0 l/m 0,73 h 0,00 h 345 W/m 5,8 km/h (2 Bft) 96,24 %
28.06.2023 18:00 24,2 C 24,7 C 19,9 C 66 % 1017,5 hPa 0,0 l/m 0,53 h 0,00 h 245 W/m 5,3 km/h (1 Bft) 99,37 %
28.06.2023 19:00 23,5 C 22,6 C 18,6 C 70 % 1017,4 hPa 0,0 l/m 0,00 h 0,00 h 64 W/m 2,9 km/h (1 Bft) 97,01 %
28.06.2023 20:00 22,8 C 22,0 C 18,2 C 71 % 1017,5 hPa 0,0 l/m 0,00 h 0,00 h 30 W/m 3,4 km/h (1 Bft) 96,76 %
28.06.2023 21:00 22,6 C 21,5 C 17,8 C 72 % 1017,4 hPa 0,0 l/m 0,00 h 0,00 h 5 W/m 3,0 km/h (1 Bft) 98,82 %
28.06.2023 22:00 22,2 C 20,8 C 17,1 C 75 % 1017,5 hPa 0,0 l/m 0,00 h 0,00 h 0 W/m 0,9 km/h (0 Bft) 96,83 %
28.06.2023 23:00 21,8 C 20,6 C 16,9 C 75 % 1017,5 hPa 0,0 l/m 0,00 h 0,00 h 0 W/m 1,1 km/h (0 Bft) 96,61 %
29.06.2023 00:00 21,4 C 20,1 C 16,7 C 76 % 1017,3 hPa 0,0 l/m 0,00 h 0,00 h 0 W/m 2,5 km/h (1 Bft) 99,05 %
29.06.2023 01:00 20,9 C 19,8 C 16,3 C 78 % 1017,0 hPa 0,0 l/m 0,00 h 0,00 h 0 W/m 2,3 km/h (1 Bft) 96,46 %
29.06.2023 02:00 20,4 C 19,1 C 16,1 C 79 % 1016,7 hPa 0,0 l/m 0,00 h 0,00 h 0 W/m 3,0 km/h (1 Bft) 97,67 %
29.06.2023 03:00 19,9 C 18,9 C 15,7 C 81 % 1016,5 hPa 0,0 l/m 0,00 h 0,00 h 0 W/m 3,0 km/h (1 Bft) 99,32 %
29.06.2023 04:00 19,5 C 18,3 C 15,3 C 83 % 1016,1 hPa 0,0 l/m 0,00 h 0,00 h 0 W/m 3,5 km/h (1 Bft) 95,40 %
29.06.2023 05:00 19,1 C 18,1 C 15,0 C 84 % 1015,8 hPa 0,0 l/m 0,00 h 0,00 h 10 W/m 4,3 km/h (1 Bft) 98,29 %
29.06.2023 06:00 19,0 C 18,4 C 15,1 C 86 % 1015,5 hPa 0,0 l/m 0,00 h 0,00 h 27 W/m 3,5 km/h (1 Bft) 97,67 %
29.06.2023 07:00 19,4 C 19,0 C 15,6 C 85 % 1015,4 hPa 0,0 l/m 0,00 h 0,00 h 54 W/m 3,5 km/h (1 Bft) 96,58 %
29.06.2023 08:00 20,1 C 20,1 C 16,4 C 86 % 1015,3 hPa 0,0 l/m 0,00 h 0,00 h 108 W/m 2,8 km/h (1 Bft) 97,59 %
29.06.2023 09:00 20,8 C 20,3 C 16,8 C 85 % 1015,2 hPa 0,0 l/m 0,00 h 0,00 h 86 W/m 2,9 km/h (1 Bft) 98,72 %
29.06.2023 10:00 21,3 C 21,3 C 17,5 C 85 % 1015,1 hPa 0,0 l/m 0,07 h 0,00 h 191 W/m 4,6 km/h (1 Bft) 96,63 %
29.06.2023 11:00 23,4 C 24,8 C 20,5 C 79 % 1014,8 hPa 0,0 l/m 0,53 h 0,00 h 389 W/m 6,1 km/h (2 Bft) 98,44 %
29.06.2023 12:00 23,3 C 22,5 C 18,9 C 78 % 1014,6 hPa 0,0 l/m 0,00 h 0,00 h 112 W/m 3,9 km/h (1 Bft) 96,90 %
29.06.2023 13:00 23,5 C 23,6 C 19,6 C 78 % 1014,4 hPa 0,0 l/m 0,00 h 0,00 h 240 W/m 5,7 km/h (1 Bft) 99,15 %
29.06.2023 14:00 24,4 C 24,5 C 20,4 C 73 % 1014,1 hPa 0,0 l/m 0,00 h 0,00 h 279 W/m 7,4 km/h (2 Bft) 95,61 %
29.06.2023 15:00 25,4 C 25,9 C 21,4 C 68 % 1014,0 hPa 0,0 l/m 0,20 h 0,00 h 366 W/m 10,0 km/h (2 Bft) 98,87 %
29.06.2023 16:00 25,1 C 25,0 C 20,9 C 68 % 1013,7 hPa 0,0 l/m 0,00 h 0,00 h 249 W/m 10,7 km/h (2 Bft) 98,58 %
29.06.2023 17:00 24,1 C 23,5 C 19,7 C 70 % 1013,4 hPa 0,0 l/m 0,00 h 0,00 h 116 W/m 7,4 km/h (2 Bft) 95,64 %
29.06.2023 18:00 24,5 C 26,1 C 20,4 C 69 % 1013,1 hPa 0,0 l/m 0,77 h 0,00 h 332 W/m 8,1 km/h (2 Bft) 98,17 %
29.06.2023 19:00 23,6 C 22,7 C 19,0 C 72 % 1013,2 hPa 0,0 l/m 0,07 h 0,00 h 69 W/m 11,9 km/h (2 Bft) 98,65 %
29.06.2023 20:00 22,0 C 20,9 C 17,5 C 80 % 1013,1 hPa 0,0 l/m 0,00 h 0,00 h 25 W/m 1,4 km/h (1 Bft) 94,82 %
29.06.2023 21:00 21,2 C 20,0 C 16,7 C 82 % 1013,6 hPa 0,0 l/m 0,00 h 0,00 h 4 W/m 5,2 km/h (1 Bft) 98,44 %
29.06.2023 22:00 20,0 C 18,7 C 15,1 C 88 % 1014,0 hPa 0,0 l/m 0,00 h 0,37 h 0 W/m 10,1 km/h (2 Bft) 97,31 %
29.06.2023 23:00 18,9 C 17,7 C 14,2 C 93 % 1014,2 hPa 0,2 l/m 0,00 h 0,17 h 0 W/m 11,3 km/h (2 Bft) 97,24 %
30.06.2023 00:00 17,5 C 16,7 C 13,4 C 94 % 1014,2 hPa 0,0 l/m 0,00 h 0,00 h 0 W/m 15,1 km/h (3 Bft) 97,77 %
30.06.2023 01:00 16,6 C 15,8 C 12,1 C 94 % 1014,4 hPa 1,0 l/m 0,00 h 0,50 h 0 W/m 13,4 km/h (3 Bft) 98,04 %
30.06.2023 02:00 15,8 C 15,0 C 11,1 C 96 % 1014,4 hPa 0,6 l/m 0,00 h 0,40 h 0 W/m 7,0 km/h (2 Bft) 95,55 %
30.06.2023 03:00 15,8 C 14,9 C 11,2 C 97 % 1014,3 hPa 0,4 l/m 0,00 h 0,67 h 0 W/m 5,4 km/h (1 Bft) 99,16 %
30.06.2023 04:00 15,4 C 14,4 C 11,1 C 97 % 1014,4 hPa 0,0 l/m 0,00 h 0,00 h 0 W/m 6,8 km/h (2 Bft) 97,74 %
30.06.2023 05:00 15,2 C 14,4 C 11,0 C 97 % 1014,4 hPa 0,0 l/m 0,00 h 0,00 h 4 W/m 5,8 km/h (2 Bft) 95,57 %
30.06.2023 06:00 15,2 C 14,4 C 11,0 C 97 % 1014,5 hPa 0,0 l/m 0,00 h 0,00 h 28 W/m 4,0 km/h (1 Bft) 99,74 %
30.06.2023 07:00 14,9 C 14,8 C 11,2 C 97 % 1014,6 hPa 0,0 l/m 0,17 h 0,00 h 96 W/m 6,1 km/h (2 Bft) 96,65 %
30.06.2023 08:00 15,8 C 18,9 C 13,1 C 91 % 1014,9 hPa 0,0 l/m 0,87 h 0,00 h 318 W/m 8,8 km/h (2 Bft) 96,84 %
30.06.2023 09:00 18,0 C 22,5 C 16,1 C 76 % 1015,0 hPa 0,0 l/m 0,98 h 0,00 h 536 W/m 14,3 km/h (3 Bft) 98,63 %
30.06.2023 10:00 19,4 C 22,8 C 19,8 C 68 % 1015,1 hPa 0,0 l/m 1,00 h 0,00 h 709 W/m 12,4 km/h (3 Bft) 98,69 %
30.06.2023 11:00 20,7 C 23,4 C 19,5 C 63 % 1014,8 hPa 0,0 l/m 1,00 h 0,00 h 826 W/m 10,7 km/h (2 Bft) 97,34 %
30.06.2023 12:00 21,6 C 24,3 C 21,6 C 60 % 1014,5 hPa 0,0 l/m 0,90 h 0,00 h 723 W/m 11,1 km/h (2 Bft) 98,09 %
30.06.2023 13:00 21,7 C 23,4 C 19,8 C 60 % 1014,2 hPa 0,0 l/m 0,40 h 0,00 h 538 W/m 11,9 km/h (2 Bft) 95,24 %
30.06.2023 14:00 22,5 C 26,4 C 19,5 C 58 % 1014,0 hPa 0,0 l/m 0,77 h 0,00 h 732 W/m 12,4 km/h (3 Bft) 99,49 %
30.06.2023 15:00 23,9 C 27,2 C 19,6 C 54 % 1013,5 hPa 0,0 l/m 0,93 h 0,00 h 721 W/m 10,3 km/h (2 Bft) 97,20 %
30.06.2023 16:00 24,3 C 27,3 C 19,9 C 52 % 1012,9 hPa 0,0 l/m 1,00 h 0,00 h 662 W/m 10,0 km/h (2 Bft) 97,33 %
30.06.2023 17:00 23,9 C 24,9 C 19,5 C 53 % 1012,5 hPa 0,0 l/m 0,47 h 0,00 h 346 W/m 7,7 km/h (2 Bft) 98,12 %
30.06.2023 18:00 23,0 C 23,1 C 18,9 C 56 % 1012,0 hPa 0,0 l/m 0,27 h 0,00 h 199 W/m 9,2 km/h (2 Bft) 98,06 %
30.06.2023 19:00 22,7 C 22,9 C 18,5 C 58 % 1011,5 hPa 0,0 l/m 0,40 h 0,00 h 160 W/m 8,9 km/h (2 Bft) 96,53 %
30.06.2023 20:00 21,9 C 21,1 C 17,7 C 61 % 1011,1 hPa 0,0 l/m 0,00 h 0,00 h 54 W/m 7,0 km/h (2 Bft) 98,66 %
30.06.2023 21:00 21,1 C 19,8 C 16,7 C 64 % 1011,0 hPa 0,0 l/m 0,00 h 0,00 h 15 W/m 5,1 km/h (1 Bft) 97,38 %
30.06.2023 22:00 20,0 C 18,5 C 15,6 C 70 % 1010,9 hPa 0,0 l/m 0,00 h 0,00 h 0 W/m 3,1 km/h (1 Bft) 97,69 %
30.06.2023 23:00 19,1 C 18,1 C 15,0 C 72 % 1010,6 hPa 0,0 l/m 0,00 h 0,00 h 0 W/m 5,5 km/h (1 Bft) 97,35 %
01.07.2023 00:00 18,7 C 17,8 C 14,7 C 74 % 1010,0 hPa 0,0 l/m 0,00 h 0,00 h 0 W/m 5,9 km/h (2 Bft) 97,18 %
01.07.2023 01:00 18,6 C 17,8 C 14,8 C 75 % 1009,5 hPa 0,0 l/m 0,00 h 0,00 h 0 W/m 5,2 km/h (1 Bft) 97,64 %
01.07.2023 02:00 18,4 C 17,4 C 14,4 C 76 % 1008,9 hPa 0,0 l/m 0,00 h 0,00 h 0 W/m 4,9 km/h (1 Bft) 97,20 %
01.07.2023 03:00 18,1 C 17,2 C 14,4 C 76 % 1008,2 hPa 0,0 l/m 0,00 h 0,00 h 0 W/m 6,5 km/h (2 Bft) 97,42 %
01.07.2023 04:00 18,1 C 17,2 C 14,4 C 75 % 1007,6 hPa 0,0 l/m 0,00 h 0,00 h 0 W/m 8,8 km/h (2 Bft) 96,99 %
01.07.2023 05:00 18,3 C 17,7 C 14,4 C 72 % 1007,2 hPa 0,0 l/m 0,00 h 0,00 h 6 W/m 15,1 km/h (3 Bft) 97,88 %
01.07.2023 06:00 18,4 C 17,8 C 14,4 C 72 % 1006,7 hPa 0,0 l/m 0,00 h 0,00 h 31 W/m 13,8 km/h (3 Bft) 96,51 %
01.07.2023 07:00 18,3 C 17,5 C 13,9 C 75 % 1006,4 hPa 0,2 l/m 0,00 h 0,27 h 36 W/m 17,0 km/h (3 Bft) 97,65 %
01.07.2023 08:00 17,0 C 16,3 C 11,7 C 87 % 1006,3 hPa 0,0 l/m 0,00 h 0,37 h 81 W/m 18,4 km/h (3 Bft) 96,39 %
01.07.2023 09:00 17,4 C 17,2 C 13,6 C 87 % 1006,0 hPa 0,0 l/m 0,00 h 0,00 h 143 W/m 19,5 km/h (3 Bft) 97,95 %
01.07.2023 10:00 17,6 C 16,9 C 13,4 C 89 % 1005,9 hPa 0,2 l/m 0,00 h 0,20 h 138 W/m 23,8 km/h (4 Bft) 97,00 %
01.07.2023 11:00 17,7 C 17,5 C 13,5 C 94 % 1005,6 hPa 0,2 l/m 0,00 h 0,27 h 153 W/m 19,0 km/h (3 Bft) 97,65 %
01.07.2023 12:00 17,9 C 17,5 C 13,3 C 94 % 1005,2 hPa 0,0 l/m 0,00 h 0,17 h 151 W/m 20,2 km/h (4 Bft) 97,57 %
01.07.2023 13:00 18,5 C 18,6 C 14,9 C 93 % 1005,0 hPa 0,0 l/m 0,00 h 0,00 h 169 W/m 20,8 km/h (4 Bft) 98,01 %
01.07.2023 14:00 20,0 C 20,4 C 16,4 C 87 % 1004,8 hPa 0,0 l/m 0,10 h 0,00 h 295 W/m 22,5 km/h (4 Bft) 97,01 %
01.07.2023 15:00 21,9 C 23,3 C 18,2 C 81 % 1004,5 hPa 0,0 l/m 0,50 h 0,00 h 404 W/m 24,1 km/h (4 Bft) 99,15 %
01.07.2023 16:00 22,8 C 23,2 C 18,7 C 77 % 1004,4 hPa 0,2 l/m 0,07 h 0,00 h 255 W/m 19,2 km/h (3 Bft) 95,13 %
01.07.2023 17:00 21,1 C 20,6 C 17,0 C 78 % 1004,9 hPa 0,0 l/m 0,03 h 0,07 h 143 W/m 16,3 km/h (3 Bft) 98,72 %
01.07.2023 18:00 21,0 C 20,4 C 16,9 C 78 % 1005,2 hPa 0,0 l/m 0,00 h 0,00 h 102 W/m 14,1 km/h (3 Bft) 98,31 %
01.07.2023 19:00 20,0 C 19,4 C 15,9 C 82 % 1005,8 hPa 0,0 l/m 0,00 h 0,00 h 55 W/m 14,4 km/h (3 Bft) 95,92 %
01.07.2023 20:00 19,2 C 18,3 C 14,9 C 83 % 1006,3 hPa 0,0 l/m 0,00 h 0,03 h 27 W/m 13,0 km/h (3 Bft) 98,09 %
01.07.2023 21:00 18,1 C 17,2 C 13,9 C 88 % 1006,7 hPa 0,0 l/m 0,00 h 0,00 h 11 W/m 8,1 km/h (2 Bft) 98,86 %
01.07.2023 22:00 17,9 C 17,2 C 13,9 C 88 % 1007,5 hPa 0,0 l/m 0,00 h 0,00 h 0 W/m 6,3 km/h (2 Bft) 95,02 %
01.07.2023 23:00 17,7 C 16,7 C 13,8 C 88 % 1007,9 hPa 0,0 l/m 0,00 h 0,00 h 0 W/m 10,4 km/h (2 Bft) 98,33 %
02.07.2023 00:00 17,6 C 16,7 C 13,5 C 88 % 1008,0 hPa 0,0 l/m 0,00 h 0,00 h 0 W/m 9,5 km/h (2 Bft) 98,41 %
02.07.2023 01:00 17,5 C 16,7 C 13,3 C 88 % 1008,1 hPa 0,0 l/m 0,00 h 0,00 h 0 W/m 7,6 km/h (2 Bft) 95,08 %
02.07.2023 02:00 17,2 C 16,3 C 13,3 C 87 % 1007,9 hPa 0,0 l/m 0,00 h 0,00 h 0 W/m 13,3 km/h (3 Bft) 99,43 %
02.07.2023 03:00 16,5 C 15,8 C 12,6 C 86 % 1007,8 hPa 0,0 l/m 0,00 h 0,00 h 0 W/m 13,9 km/h (3 Bft) 97,57 %
02.07.2023 04:00 16,1 C 15,5 C 12,2 C 87 % 1008,1 hPa 0,0 l/m 0,00 h 0,00 h 0 W/m 9,9 km/h (2 Bft) 94,69 %
02.07.2023 05:00 15,9 C 15,1 C 12,2 C 87 % 1008,4 hPa 0,0 l/m 0,00 h 0,00 h 9 W/m 10,7 km/h (2 Bft) 98,38 %
02.07.2023 06:00 15,9 C 15,3 C 12,2 C 88 % 1009,0 hPa 0,0 l/m 0,00 h 0,00 h 37 W/m 10,2 km/h (2 Bft) 98,24 %
02.07.2023 07:00 16,4 C 16,2 C 12,8 C 87 % 1009,5 hPa 0,0 l/m 0,03 h 0,00 h 106 W/m 9,8 km/h (2 Bft) 94,47 %
02.07.2023 08:00 17,3 C 18,3 C 14,1 C 84 % 1010,0 hPa 0,0 l/m 0,28 h 0,00 h 222 W/m 12,5 km/h (3 Bft) 99,77 %
02.07.2023 09:00 18,7 C 20,7 C 16,3 C 73 % 1010,4 hPa 0,0 l/m 0,50 h 0,00 h 346 W/m 16,4 km/h (3 Bft) 96,61 %
02.07.2023 10:00 18,5 C 18,4 C 15,0 C 70 % 1010,9 hPa 0,0 l/m 0,00 h 0,00 h 201 W/m 15,1 km/h (3 Bft) 98,67 %
02.07.2023 11:00 19,1 C 19,7 C 16,0 C 69 % 1011,1 hPa 0,0 l/m 0,23 h 0,00 h 329 W/m 15,2 km/h (3 Bft) 96,38 %
02.07.2023 12:00 19,4 C 20,3 C 17,2 C 63 % 1011,4 hPa 0,0 l/m 0,33 h 0,00 h 401 W/m 16,1 km/h (3 Bft) 96,71 %
02.07.2023 13:00 21,4 C 23,9 C 20,2 C 57 % 1011,4 hPa 0,0 l/m 0,73 h 0,00 h 721 W/m 20,0 km/h (4 Bft) 98,38 %
02.07.2023 14:00 22,2 C 24,9 C 19,3 C 56 % 1011,4 hPa 0,0 l/m 0,70 h 0,00 h 661 W/m 20,1 km/h (4 Bft) 96,84 %
02.07.2023 15:00 22,8 C 25,1 C 18,8 C 56 % 1011,5 hPa 0,0 l/m 0,83 h 0,00 h 722 W/m 19,6 km/h (3 Bft) 97,05 %
02.07.2023 16:00 22,3 C 23,4 C 18,4 C 58 % 1011,6 hPa 0,0 l/m 0,43 h 0,00 h 448 W/m 15,8 km/h (3 Bft) 99,37 %
02.07.2023 17:00 22,4 C 24,4 C 18,4 C 57 % 1011,3 hPa 0,0 l/m 0,60 h 0,00 h 460 W/m 17,6 km/h (3 Bft) 96,45 %
02.07.2023 18:00 22,9 C 25,3 C 19,0 C 55 % 1011,2 hPa 0,0 l/m 0,87 h 0,00 h 413 W/m 16,5 km/h (3 Bft) 97,63 %
02.07.2023 19:00 22,0 C 22,2 C 17,8 C 57 % 1011,0 hPa 0,0 l/m 0,47 h 0,00 h 163 W/m 12,4 km/h (3 Bft) 96,59 %
02.07.2023 20:00 21,2 C 20,5 C 16,8 C 61 % 1010,7 hPa 0,0 l/m 0,07 h 0,00 h 52 W/m 6,7 km/h (2 Bft) 99,29 %
02.07.2023 21:00 20,3 C 19,1 C 15,9 C 65 % 1010,5 hPa 0,0 l/m 0,00 h 0,00 h 15 W/m 4,6 km/h (1 Bft) 96,52 %
02.07.2023 22:00 19,4 C 18,3 C 15,0 C 68 % 1011,0 hPa 0,0 l/m 0,00 h 0,00 h 4 W/m 5,0 km/h (1 Bft) 97,86 %
02.07.2023 23:00 18,4 C 17,1 C 13,9 C 70 % 1011,5 hPa 0,0 l/m 0,00 h 0,00 h 0 W/m 5,4 km/h (1 Bft) 97,49 %
Min-Datum _ 30.06.23 27.06.23 30.06.23 30.06.23 01.07.23 - - - - 26.06.23 28.06.23
_ Min-Zeit 07:34 02:18 04:12 16:40 15:58 - - - - 00:00 00:02
Minimum _ 14,8 C 14,4 C 10,6 C 50 % 1004,2 hPa - - - - 0,0 km/h (0 Bft) 11,11 %
Max-Datum _ 29.06.23 26.06.23 26.06.23 30.06.23 27.06.23 30.06.23 26.06.23 28.06.23 30.06.23 01.07.23 26.06.23
_ Max-Zeit 15:24 12:54 12:54 03:16 02:22 01:31 16:32 00:08 13:24 15:30 00:00
Maximum _ 25,6 C 28,9 C 30,0 C 97 % 1021,0 hPa 1,0 l/m 0,08 h 0,07 h 1197 W/m 61,2 km/h
S (7 Bft)
100,00 %
Durchschnitt _ 20,1 C 20,1 C 16,3 C 75 % 1014,3 hPa #3,4 l/m #33:19 h #4:50 h 251 W/m 9,3 km/h (2 Bft) 97,42 %
© 2023 W. Hausmann